sensor_id;sensor_type;location;lat;lon;timestamp;P1;durP1;ratioP1;P2;durP2;ratioP2
45039;SDS011;30778;53.574;7.770;2023-07-16T00:00:17;1.83;;;0.43;;
45039;SDS011;30778;53.574;7.770;2023-07-16T00:02:48;0.90;;;0.40;;
45039;SDS011;30778;53.574;7.770;2023-07-16T00:05:14;3.97;;;1.05;;
45039;SDS011;30778;53.574;7.770;2023-07-16T00:07:40;2.28;;;1.02;;
45039;SDS011;30778;53.574;7.770;2023-07-16T00:10:06;5.18;;;1.05;;
45039;SDS011;30778;53.574;7.770;2023-07-16T00:12:31;7.97;;;0.50;;
45039;SDS011;30778;53.574;7.770;2023-07-16T00:14:57;5.00;;;0.60;;
45039;SDS011;30778;53.574;7.770;2023-07-16T00:17:22;6.00;;;0.70;;
45039;SDS011;30778;53.574;7.770;2023-07-16T00:19:48;3.63;;;0.40;;
45039;SDS011;30778;53.574;7.770;2023-07-16T00:22:13;3.38;;;0.55;;
45039;SDS011;30778;53.574;7.770;2023-07-16T00:24:39;2.10;;;0.47;;
45039;SDS011;30778;53.574;7.770;2023-07-16T00:27:05;4.00;;;0.47;;
45039;SDS011;30778;53.574;7.770;2023-07-16T00:29:30;5.32;;;0.82;;
45039;SDS011;30778;53.574;7.770;2023-07-16T00:31:56;7.07;;;0.77;;
45039;SDS011;30778;53.574;7.770;2023-07-16T00:34:21;2.17;;;0.60;;
45039;SDS011;30778;53.574;7.770;2023-07-16T00:36:46;8.25;;;0.60;;
45039;SDS011;30778;53.574;7.770;2023-07-16T00:39:12;3.15;;;0.60;;
45039;SDS011;30778;53.574;7.770;2023-07-16T00:41:37;3.80;;;0.57;;
45039;SDS011;30778;53.574;7.770;2023-07-16T00:44:03;4.65;;;0.73;;
45039;SDS011;30778;53.574;7.770;2023-07-16T00:46:29;5.35;;;0.60;;
45039;SDS011;30778;53.574;7.770;2023-07-16T00:48:54;4.95;;;0.68;;
45039;SDS011;30778;53.574;7.770;2023-07-16T00:51:21;5.85;;;0.70;;
45039;SDS011;30778;53.574;7.770;2023-07-16T00:53:47;2.05;;;0.63;;
45039;SDS011;30778;53.574;7.770;2023-07-16T00:56:15;5.03;;;0.60;;
45039;SDS011;30778;53.574;7.770;2023-07-16T00:58:43;3.72;;;0.60;;
45039;SDS011;30778;53.574;7.770;2023-07-16T01:01:09;6.20;;;1.02;;
45039;SDS011;30778;53.574;7.770;2023-07-16T01:03:34;3.42;;;1.05;;
45039;SDS011;30778;53.574;7.770;2023-07-16T01:06:03;3.95;;;1.05;;
45039;SDS011;30778;53.574;7.770;2023-07-16T01:08:37;5.22;;;0.70;;
45039;SDS011;30778;53.574;7.770;2023-07-16T01:11:07;3.08;;;0.75;;
45039;SDS011;30778;53.574;7.770;2023-07-16T01:13:33;6.13;;;0.90;;
45039;SDS011;30778;53.574;7.770;2023-07-16T01:15:59;3.95;;;0.52;;
45039;SDS011;30778;53.574;7.770;2023-07-16T01:18:25;5.95;;;1.30;;
45039;SDS011;30778;53.574;7.770;2023-07-16T01:20:50;7.53;;;0.88;;
45039;SDS011;30778;53.574;7.770;2023-07-16T01:26:19;3.63;;;1.17;;
45039;SDS011;30778;53.574;7.770;2023-07-16T01:31:46;6.45;;;1.00;;
45039;SDS011;30778;53.574;7.770;2023-07-16T01:34:13;6.75;;;0.68;;
45039;SDS011;30778;53.574;7.770;2023-07-16T01:36:39;4.93;;;0.73;;
45039;SDS011;30778;53.574;7.770;2023-07-16T01:39:06;3.95;;;0.93;;
45039;SDS011;30778;53.574;7.770;2023-07-16T01:41:32;5.65;;;1.05;;
45039;SDS011;30778;53.574;7.770;2023-07-16T01:43:57;4.18;;;0.93;;
45039;SDS011;30778;53.574;7.770;2023-07-16T01:46:23;6.30;;;0.88;;
45039;SDS011;30778;53.574;7.770;2023-07-16T01:48:48;6.82;;;1.05;;
45039;SDS011;30778;53.574;7.770;2023-07-16T01:51:14;4.35;;;1.13;;
45039;SDS011;30778;53.574;7.770;2023-07-16T01:53:40;2.10;;;0.77;;
45039;SDS011;30778;53.574;7.770;2023-07-16T01:56:06;6.32;;;1.17;;
45039;SDS011;30778;53.574;7.770;2023-07-16T01:58:31;4.70;;;1.05;;
45039;SDS011;30778;53.574;7.770;2023-07-16T02:00:57;5.00;;;1.05;;
45039;SDS011;30778;53.574;7.770;2023-07-16T02:03:22;9.38;;;1.17;;
45039;SDS011;30778;53.574;7.770;2023-07-16T02:05:48;6.70;;;1.20;;
45039;SDS011;30778;53.574;7.770;2023-07-16T02:08:14;4.05;;;0.82;;
45039;SDS011;30778;53.574;7.770;2023-07-16T02:10:39;8.45;;;1.30;;
45039;SDS011;30778;53.574;7.770;2023-07-16T02:13:05;4.90;;;0.95;;
45039;SDS011;30778;53.574;7.770;2023-07-16T02:15:31;3.28;;;1.10;;
45039;SDS011;30778;53.574;7.770;2023-07-16T02:17:57;5.63;;;1.00;;
45039;SDS011;30778;53.574;7.770;2023-07-16T02:20:22;5.18;;;0.88;;
45039;SDS011;30778;53.574;7.770;2023-07-16T02:22:48;4.32;;;1.80;;
45039;SDS011;30778;53.574;7.770;2023-07-16T02:25:14;9.30;;;1.90;;
45039;SDS011;30778;53.574;7.770;2023-07-16T02:27:40;5.57;;;1.00;;
45039;SDS011;30778;53.574;7.770;2023-07-16T02:30:06;6.05;;;0.60;;
45039;SDS011;30778;53.574;7.770;2023-07-16T02:32:32;3.28;;;1.05;;
45039;SDS011;30778;53.574;7.770;2023-07-16T02:35:00;3.90;;;1.15;;
45039;SDS011;30778;53.574;7.770;2023-07-16T02:37:27;9.05;;;1.48;;
45039;SDS011;30778;53.574;7.770;2023-07-16T02:39:52;7.20;;;1.67;;
45039;SDS011;30778;53.574;7.770;2023-07-16T02:42:18;3.65;;;0.80;;
45039;SDS011;30778;53.574;7.770;2023-07-16T02:44:44;3.42;;;0.98;;
45039;SDS011;30778;53.574;7.770;2023-07-16T02:47:13;6.45;;;1.20;;
45039;SDS011;30778;53.574;7.770;2023-07-16T02:49:38;6.53;;;1.50;;
45039;SDS011;30778;53.574;7.770;2023-07-16T02:52:04;3.42;;;0.88;;
45039;SDS011;30778;53.574;7.770;2023-07-16T02:54:31;5.10;;;0.68;;
45039;SDS011;30778;53.574;7.770;2023-07-16T02:56:58;5.40;;;1.27;;
45039;SDS011;30778;53.574;7.770;2023-07-16T02:59:23;6.40;;;0.88;;
45039;SDS011;30778;53.574;7.770;2023-07-16T03:01:52;6.15;;;1.52;;
45039;SDS011;30778;53.574;7.770;2023-07-16T03:04:19;6.18;;;1.23;;
45039;SDS011;30778;53.574;7.770;2023-07-16T03:06:45;3.20;;;0.70;;
45039;SDS011;30778;53.574;7.770;2023-07-16T03:09:11;7.47;;;1.70;;
45039;SDS011;30778;53.574;7.770;2023-07-16T03:11:36;3.95;;;0.95;;
45039;SDS011;30778;53.574;7.770;2023-07-16T03:14:02;3.63;;;0.82;;
45039;SDS011;30778;53.574;7.770;2023-07-16T03:16:28;4.32;;;1.52;;
45039;SDS011;30778;53.574;7.770;2023-07-16T03:18:53;10.43;;;0.95;;
45039;SDS011;30778;53.574;7.770;2023-07-16T03:21:19;10.43;;;0.93;;
45039;SDS011;30778;53.574;7.770;2023-07-16T03:23:45;4.18;;;1.08;;
45039;SDS011;30778;53.574;7.770;2023-07-16T03:26:10;7.07;;;1.30;;
45039;SDS011;30778;53.574;7.770;2023-07-16T03:28:36;4.72;;;1.45;;
45039;SDS011;30778;53.574;7.770;2023-07-16T03:31:04;3.83;;;1.70;;
45039;SDS011;30778;53.574;7.770;2023-07-16T03:33:31;4.53;;;1.75;;
45039;SDS011;30778;53.574;7.770;2023-07-16T03:35:59;5.88;;;1.17;;
45039;SDS011;30778;53.574;7.770;2023-07-16T03:38:25;8.32;;;1.52;;
45039;SDS011;30778;53.574;7.770;2023-07-16T03:40:51;9.80;;;1.60;;
45039;SDS011;30778;53.574;7.770;2023-07-16T03:43:17;7.88;;;1.35;;
45039;SDS011;30778;53.574;7.770;2023-07-16T03:45:43;4.65;;;1.50;;
45039;SDS011;30778;53.574;7.770;2023-07-16T03:48:09;7.03;;;1.35;;
45039;SDS011;30778;53.574;7.770;2023-07-16T03:50:36;8.82;;;1.80;;
45039;SDS011;30778;53.574;7.770;2023-07-16T03:53:01;3.88;;;1.95;;
45039;SDS011;30778;53.574;7.770;2023-07-16T03:55:28;10.35;;;1.70;;
45039;SDS011;30778;53.574;7.770;2023-07-16T03:57:55;7.97;;;2.08;;
45039;SDS011;30778;53.574;7.770;2023-07-16T04:00:21;8.15;;;1.50;;
45039;SDS011;30778;53.574;7.770;2023-07-16T04:02:49;5.22;;;1.38;;
45039;SDS011;30778;53.574;7.770;2023-07-16T04:05:16;7.40;;;1.40;;
45039;SDS011;30778;53.574;7.770;2023-07-16T04:07:42;5.13;;;1.50;;
45039;SDS011;30778;53.574;7.770;2023-07-16T04:10:07;4.85;;;1.33;;
45039;SDS011;30778;53.574;7.770;2023-07-16T04:12:33;4.05;;;1.50;;
45039;SDS011;30778;53.574;7.770;2023-07-16T04:14:58;11.07;;;1.85;;
45039;SDS011;30778;53.574;7.770;2023-07-16T04:17:24;2.13;;;0.98;;
45039;SDS011;30778;53.574;7.770;2023-07-16T04:19:52;5.20;;;1.95;;
45039;SDS011;30778;53.574;7.770;2023-07-16T04:22:18;4.65;;;1.48;;
45039;SDS011;30778;53.574;7.770;2023-07-16T04:24:43;9.40;;;1.80;;
45039;SDS011;30778;53.574;7.770;2023-07-16T04:27:09;4.65;;;1.35;;
45039;SDS011;30778;53.574;7.770;2023-07-16T04:29:34;9.75;;;1.98;;
45039;SDS011;30778;53.574;7.770;2023-07-16T04:31:59;5.45;;;1.27;;
45039;SDS011;30778;53.574;7.770;2023-07-16T04:34:25;2.67;;;1.38;;
45039;SDS011;30778;53.574;7.770;2023-07-16T04:36:53;8.88;;;1.83;;
45039;SDS011;30778;53.574;7.770;2023-07-16T04:39:21;5.90;;;1.27;;
45039;SDS011;30778;53.574;7.770;2023-07-16T04:41:47;8.82;;;1.88;;
45039;SDS011;30778;53.574;7.770;2023-07-16T04:44:12;10.05;;;2.00;;
45039;SDS011;30778;53.574;7.770;2023-07-16T04:46:38;14.00;;;1.95;;
45039;SDS011;30778;53.574;7.770;2023-07-16T04:49:04;8.43;;;2.13;;
45039;SDS011;30778;53.574;7.770;2023-07-16T04:51:30;6.28;;;1.45;;
45039;SDS011;30778;53.574;7.770;2023-07-16T04:53:55;9.70;;;2.00;;
45039;SDS011;30778;53.574;7.770;2023-07-16T04:56:23;7.60;;;2.00;;
45039;SDS011;30778;53.574;7.770;2023-07-16T04:58:49;7.90;;;3.08;;
45039;SDS011;30778;53.574;7.770;2023-07-16T05:01:14;4.75;;;1.80;;
45039;SDS011;30778;53.574;7.770;2023-07-16T05:03:40;6.45;;;2.17;;
45039;SDS011;30778;53.574;7.770;2023-07-16T05:06:06;9.85;;;2.28;;
45039;SDS011;30778;53.574;7.770;2023-07-16T05:08:31;9.45;;;1.98;;
45039;SDS011;30778;53.574;7.770;2023-07-16T05:10:57;8.00;;;1.63;;
45039;SDS011;30778;53.574;7.770;2023-07-16T05:13:24;7.10;;;1.38;;
45039;SDS011;30778;53.574;7.770;2023-07-16T05:15:50;11.15;;;1.98;;
45039;SDS011;30778;53.574;7.770;2023-07-16T05:18:20;5.97;;;1.27;;
45039;SDS011;30778;53.574;7.770;2023-07-16T05:20:47;8.50;;;1.80;;
45039;SDS011;30778;53.574;7.770;2023-07-16T05:23:14;4.85;;;1.77;;
45039;SDS011;30778;53.574;7.770;2023-07-16T05:25:45;4.30;;;1.60;;
45039;SDS011;30778;53.574;7.770;2023-07-16T05:28:12;6.47;;;1.73;;
45039;SDS011;30778;53.574;7.770;2023-07-16T05:30:38;8.10;;;1.90;;
45039;SDS011;30778;53.574;7.770;2023-07-16T05:33:06;6.05;;;1.75;;
45039;SDS011;30778;53.574;7.770;2023-07-16T05:35:31;8.55;;;2.20;;
45039;SDS011;30778;53.574;7.770;2023-07-16T05:37:57;14.38;;;2.30;;
45039;SDS011;30778;53.574;7.770;2023-07-16T05:40:23;5.10;;;1.85;;
45039;SDS011;30778;53.574;7.770;2023-07-16T05:42:49;4.43;;;1.52;;
45039;SDS011;30778;53.574;7.770;2023-07-16T05:45:16;8.50;;;2.17;;
45039;SDS011;30778;53.574;7.770;2023-07-16T05:47:41;6.05;;;2.53;;
45039;SDS011;30778;53.574;7.770;2023-07-16T05:50:08;6.10;;;2.28;;
45039;SDS011;30778;53.574;7.770;2023-07-16T05:52:34;8.95;;;1.90;;
45039;SDS011;30778;53.574;7.770;2023-07-16T05:55:00;5.78;;;2.15;;
45039;SDS011;30778;53.574;7.770;2023-07-16T05:57:26;5.25;;;1.67;;
45039;SDS011;30778;53.574;7.770;2023-07-16T05:59:56;5.88;;;2.60;;
45039;SDS011;30778;53.574;7.770;2023-07-16T06:02:22;9.10;;;1.92;;
45039;SDS011;30778;53.574;7.770;2023-07-16T06:04:48;5.15;;;1.58;;
45039;SDS011;30778;53.574;7.770;2023-07-16T06:07:14;8.05;;;1.65;;
45039;SDS011;30778;53.574;7.770;2023-07-16T06:09:42;5.68;;;2.78;;
45039;SDS011;30778;53.574;7.770;2023-07-16T06:12:08;8.60;;;2.20;;
45039;SDS011;30778;53.574;7.770;2023-07-16T06:14:33;5.78;;;1.40;;
45039;SDS011;30778;53.574;7.770;2023-07-16T06:16:59;6.63;;;1.88;;
45039;SDS011;30778;53.574;7.770;2023-07-16T06:19:27;9.82;;;1.83;;
45039;SDS011;30778;53.574;7.770;2023-07-16T06:21:53;2.38;;;1.27;;
45039;SDS011;30778;53.574;7.770;2023-07-16T06:24:19;7.82;;;1.75;;
45039;SDS011;30778;53.574;7.770;2023-07-16T06:26:45;5.60;;;1.52;;
45039;SDS011;30778;53.574;7.770;2023-07-16T06:29:13;3.72;;;1.38;;
45039;SDS011;30778;53.574;7.770;2023-07-16T06:31:38;5.22;;;0.98;;
45039;SDS011;30778;53.574;7.770;2023-07-16T06:34:04;7.30;;;1.20;;
45039;SDS011;30778;53.574;7.770;2023-07-16T06:36:30;2.78;;;1.02;;
45039;SDS011;30778;53.574;7.770;2023-07-16T06:38:56;5.25;;;1.35;;
45039;SDS011;30778;53.574;7.770;2023-07-16T06:41:21;9.18;;;1.70;;
45039;SDS011;30778;53.574;7.770;2023-07-16T06:43:47;8.07;;;1.33;;
45039;SDS011;30778;53.574;7.770;2023-07-16T06:46:13;8.85;;;1.90;;
45039;SDS011;30778;53.574;7.770;2023-07-16T06:48:39;6.25;;;1.42;;
45039;SDS011;30778;53.574;7.770;2023-07-16T06:51:05;3.88;;;1.10;;
45039;SDS011;30778;53.574;7.770;2023-07-16T06:53:30;4.05;;;0.82;;
45039;SDS011;30778;53.574;7.770;2023-07-16T06:55:56;7.85;;;1.25;;
45039;SDS011;30778;53.574;7.770;2023-07-16T06:58:24;7.47;;;1.23;;
45039;SDS011;30778;53.574;7.770;2023-07-16T07:00:57;5.22;;;1.73;;
45039;SDS011;30778;53.574;7.770;2023-07-16T07:03:23;10.38;;;1.30;;
45039;SDS011;30778;53.574;7.770;2023-07-16T07:05:49;4.50;;;1.73;;
45039;SDS011;30778;53.574;7.770;2023-07-16T07:08:15;5.40;;;1.30;;
45039;SDS011;30778;53.574;7.770;2023-07-16T07:10:40;5.50;;;1.05;;
45039;SDS011;30778;53.574;7.770;2023-07-16T07:13:06;4.78;;;0.90;;
45039;SDS011;30778;53.574;7.770;2023-07-16T07:15:31;3.85;;;1.05;;
45039;SDS011;30778;53.574;7.770;2023-07-16T07:17:57;5.30;;;1.40;;
45039;SDS011;30778;53.574;7.770;2023-07-16T07:20:23;5.57;;;1.55;;
45039;SDS011;30778;53.574;7.770;2023-07-16T07:22:48;8.05;;;1.38;;
45039;SDS011;30778;53.574;7.770;2023-07-16T07:25:14;3.33;;;1.05;;
45039;SDS011;30778;53.574;7.770;2023-07-16T07:27:40;11.18;;;1.73;;
45039;SDS011;30778;53.574;7.770;2023-07-16T07:30:06;6.18;;;1.33;;
45039;SDS011;30778;53.574;7.770;2023-07-16T07:32:32;4.53;;;1.92;;
45039;SDS011;30778;53.574;7.770;2023-07-16T07:34:58;6.95;;;1.98;;
45039;SDS011;30778;53.574;7.770;2023-07-16T07:37:23;9.60;;;0.93;;
45039;SDS011;30778;53.574;7.770;2023-07-16T07:39:51;3.33;;;1.20;;
45039;SDS011;30778;53.574;7.770;2023-07-16T07:42:17;10.27;;;1.52;;
45039;SDS011;30778;53.574;7.770;2023-07-16T07:44:43;2.60;;;1.08;;
45039;SDS011;30778;53.574;7.770;2023-07-16T07:47:08;7.75;;;1.48;;
45039;SDS011;30778;53.574;7.770;2023-07-16T07:49:34;2.85;;;1.25;;
45039;SDS011;30778;53.574;7.770;2023-07-16T07:51:59;5.95;;;2.65;;
45039;SDS011;30778;53.574;7.770;2023-07-16T07:54:25;5.70;;;2.15;;
45039;SDS011;30778;53.574;7.770;2023-07-16T07:56:51;3.97;;;1.60;;
45039;SDS011;30778;53.574;7.770;2023-07-16T07:59:22;6.05;;;2.20;;
45039;SDS011;30778;53.574;7.770;2023-07-16T08:01:50;4.25;;;1.70;;
45039;SDS011;30778;53.574;7.770;2023-07-16T08:04:15;5.82;;;1.73;;
45039;SDS011;30778;53.574;7.770;2023-07-16T08:06:46;5.77;;;1.70;;
45039;SDS011;30778;53.574;7.770;2023-07-16T08:09:14;3.42;;;2.10;;
45039;SDS011;30778;53.574;7.770;2023-07-16T08:11:40;3.00;;;1.33;;
45039;SDS011;30778;53.574;7.770;2023-07-16T08:14:05;5.50;;;1.30;;
45039;SDS011;30778;53.574;7.770;2023-07-16T08:16:31;5.75;;;2.20;;
45039;SDS011;30778;53.574;7.770;2023-07-16T08:18:57;8.05;;;2.40;;
45039;SDS011;30778;53.574;7.770;2023-07-16T08:21:24;8.95;;;1.98;;
45039;SDS011;30778;53.574;7.770;2023-07-16T08:23:50;3.75;;;1.75;;
45039;SDS011;30778;53.574;7.770;2023-07-16T08:26:16;5.90;;;1.88;;
45039;SDS011;30778;53.574;7.770;2023-07-16T08:28:42;5.15;;;1.45;;
45039;SDS011;30778;53.574;7.770;2023-07-16T08:31:09;4.10;;;1.98;;
45039;SDS011;30778;53.574;7.770;2023-07-16T08:33:41;5.10;;;1.85;;
45039;SDS011;30778;53.574;7.770;2023-07-16T08:36:07;8.85;;;2.03;;
45039;SDS011;30778;53.574;7.770;2023-07-16T08:38:35;8.60;;;1.80;;
45039;SDS011;30778;53.574;7.770;2023-07-16T08:41:00;6.70;;;2.13;;
45039;SDS011;30778;53.574;7.770;2023-07-16T08:43:26;5.47;;;1.90;;
45039;SDS011;30778;53.574;7.770;2023-07-16T08:45:59;9.25;;;1.88;;
45039;SDS011;30778;53.574;7.770;2023-07-16T08:48:27;4.35;;;2.33;;
45039;SDS011;30778;53.574;7.770;2023-07-16T08:50:54;6.53;;;1.65;;
45039;SDS011;30778;53.574;7.770;2023-07-16T08:53:23;5.88;;;1.48;;
45039;SDS011;30778;53.574;7.770;2023-07-16T08:55:48;4.95;;;1.73;;
45039;SDS011;30778;53.574;7.770;2023-07-16T08:58:17;3.85;;;1.55;;
45039;SDS011;30778;53.574;7.770;2023-07-16T09:00:43;3.40;;;1.55;;
45039;SDS011;30778;53.574;7.770;2023-07-16T09:03:18;3.70;;;1.55;;
45039;SDS011;30778;53.574;7.770;2023-07-16T09:05:44;3.28;;;1.55;;
45039;SDS011;30778;53.574;7.770;2023-07-16T09:08:12;5.03;;;1.63;;
45039;SDS011;30778;53.574;7.770;2023-07-16T09:10:40;5.28;;;2.70;;
45039;SDS011;30778;53.574;7.770;2023-07-16T09:13:06;4.63;;;1.58;;
45039;SDS011;30778;53.574;7.770;2023-07-16T09:15:34;5.82;;;1.73;;
45039;SDS011;30778;53.574;7.770;2023-07-16T09:17:59;4.63;;;1.60;;
45039;SDS011;30778;53.574;7.770;2023-07-16T09:20:25;3.05;;;1.08;;
45039;SDS011;30778;53.574;7.770;2023-07-16T09:22:55;5.65;;;1.52;;
45039;SDS011;30778;53.574;7.770;2023-07-16T09:25:26;6.13;;;1.38;;
45039;SDS011;30778;53.574;7.770;2023-07-16T09:27:58;3.97;;;1.50;;
45039;SDS011;30778;53.574;7.770;2023-07-16T09:35:35;5.78;;;1.85;;
45039;SDS011;30778;53.574;7.770;2023-07-16T09:38:01;5.32;;;1.50;;
45039;SDS011;30778;53.574;7.770;2023-07-16T09:40:29;4.28;;;1.90;;
45039;SDS011;30778;53.574;7.770;2023-07-16T09:42:55;7.90;;;2.13;;
45039;SDS011;30778;53.574;7.770;2023-07-16T09:45:21;4.70;;;1.42;;
45039;SDS011;30778;53.574;7.770;2023-07-16T09:47:49;5.97;;;1.70;;
45039;SDS011;30778;53.574;7.770;2023-07-16T09:50:15;4.80;;;1.42;;
45039;SDS011;30778;53.574;7.770;2023-07-16T09:52:40;4.90;;;2.55;;
45039;SDS011;30778;53.574;7.770;2023-07-16T09:55:08;9.38;;;2.28;;
45039;SDS011;30778;53.574;7.770;2023-07-16T09:57:39;4.68;;;1.58;;
45039;SDS011;30778;53.574;7.770;2023-07-16T10:00:09;7.53;;;1.75;;
45039;SDS011;30778;53.574;7.770;2023-07-16T10:02:38;7.18;;;1.85;;
45039;SDS011;30778;53.574;7.770;2023-07-16T10:05:11;2.17;;;1.30;;
45039;SDS011;30778;53.574;7.770;2023-07-16T10:10:20;4.55;;;2.08;;
45039;SDS011;30778;53.574;7.770;2023-07-16T10:13:01;4.32;;;2.00;;
45039;SDS011;30778;53.574;7.770;2023-07-16T10:15:29;5.73;;;2.00;;
45039;SDS011;30778;53.574;7.770;2023-07-16T10:17:56;4.47;;;2.13;;
45039;SDS011;30778;53.574;7.770;2023-07-16T10:20:27;3.22;;;1.95;;
45039;SDS011;30778;53.574;7.770;2023-07-16T10:23:17;5.03;;;1.70;;
45039;SDS011;30778;53.574;7.770;2023-07-16T10:25:59;5.03;;;1.23;;
45039;SDS011;30778;53.574;7.770;2023-07-16T10:28:29;6.07;;;1.98;;
45039;SDS011;30778;53.574;7.770;2023-07-16T10:30:56;5.43;;;1.98;;
45039;SDS011;30778;53.574;7.770;2023-07-16T10:33:26;2.95;;;1.70;;
45039;SDS011;30778;53.574;7.770;2023-07-16T10:35:52;10.65;;;2.63;;
45039;SDS011;30778;53.574;7.770;2023-07-16T10:38:20;7.65;;;1.88;;
45039;SDS011;30778;53.574;7.770;2023-07-16T10:40:48;4.88;;;2.13;;
45039;SDS011;30778;53.574;7.770;2023-07-16T10:43:13;2.17;;;1.45;;
45039;SDS011;30778;53.574;7.770;2023-07-16T10:45:39;4.32;;;1.80;;
45039;SDS011;30778;53.574;7.770;2023-07-16T10:48:05;4.45;;;2.00;;
45039;SDS011;30778;53.574;7.770;2023-07-16T10:50:36;8.75;;;2.17;;
45039;SDS011;30778;53.574;7.770;2023-07-16T10:53:02;6.45;;;2.20;;
45039;SDS011;30778;53.574;7.770;2023-07-16T10:55:28;6.53;;;1.75;;
45039;SDS011;30778;53.574;7.770;2023-07-16T10:57:54;5.43;;;2.17;;
45039;SDS011;30778;53.574;7.770;2023-07-16T11:00:21;4.93;;;1.92;;
45039;SDS011;30778;53.574;7.770;2023-07-16T11:02:48;4.95;;;2.85;;
45039;SDS011;30778;53.574;7.770;2023-07-16T11:05:17;5.93;;;2.30;;
45039;SDS011;30778;53.574;7.770;2023-07-16T11:07:47;5.78;;;2.60;;
45039;SDS011;30778;53.574;7.770;2023-07-16T11:10:16;7.63;;;3.13;;
45039;SDS011;30778;53.574;7.770;2023-07-16T11:12:42;5.22;;;2.33;;
45039;SDS011;30778;53.574;7.770;2023-07-16T11:15:13;9.95;;;2.30;;
45039;SDS011;30778;53.574;7.770;2023-07-16T11:17:41;6.97;;;2.58;;
45039;SDS011;30778;53.574;7.770;2023-07-16T11:20:09;7.15;;;3.20;;
45039;SDS011;30778;53.574;7.770;2023-07-16T11:22:38;4.60;;;2.13;;
45039;SDS011;30778;53.574;7.770;2023-07-16T11:25:10;6.15;;;1.50;;
45039;SDS011;30778;53.574;7.770;2023-07-16T11:27:39;5.07;;;1.77;;
45039;SDS011;30778;53.574;7.770;2023-07-16T11:30:08;6.32;;;2.08;;
45039;SDS011;30778;53.574;7.770;2023-07-16T11:32:41;3.08;;;1.67;;
45039;SDS011;30778;53.574;7.770;2023-07-16T11:35:16;4.85;;;2.00;;
45039;SDS011;30778;53.574;7.770;2023-07-16T11:37:44;6.47;;;2.25;;
45039;SDS011;30778;53.574;7.770;2023-07-16T11:40:11;6.68;;;2.00;;
45039;SDS011;30778;53.574;7.770;2023-07-16T11:42:40;5.18;;;2.00;;
45039;SDS011;30778;53.574;7.770;2023-07-16T11:45:19;6.68;;;2.47;;
45039;SDS011;30778;53.574;7.770;2023-07-16T11:47:54;5.45;;;1.65;;
45039;SDS011;30778;53.574;7.770;2023-07-16T11:50:20;6.18;;;1.70;;
45039;SDS011;30778;53.574;7.770;2023-07-16T11:53:05;8.18;;;2.03;;
45039;SDS011;30778;53.574;7.770;2023-07-16T11:55:33;5.53;;;2.22;;
45039;SDS011;30778;53.574;7.770;2023-07-16T11:57:59;6.35;;;1.77;;
45039;SDS011;30778;53.574;7.770;2023-07-16T12:00:32;5.63;;;1.92;;
45039;SDS011;30778;53.574;7.770;2023-07-16T12:02:57;5.78;;;1.70;;
45039;SDS011;30778;53.574;7.770;2023-07-16T12:05:23;3.35;;;1.80;;
45039;SDS011;30778;53.574;7.770;2023-07-16T12:07:53;4.32;;;1.60;;
45039;SDS011;30778;53.574;7.770;2023-07-16T12:10:18;3.40;;;1.55;;
45039;SDS011;30778;53.574;7.770;2023-07-16T12:12:44;6.68;;;2.03;;
45039;SDS011;30778;53.574;7.770;2023-07-16T12:15:12;3.83;;;1.98;;
45039;SDS011;30778;53.574;7.770;2023-07-16T12:17:43;8.75;;;2.38;;
45039;SDS011;30778;53.574;7.770;2023-07-16T12:20:08;9.40;;;2.92;;
45039;SDS011;30778;53.574;7.770;2023-07-16T12:22:34;2.35;;;1.58;;
45039;SDS011;30778;53.574;7.770;2023-07-16T12:25:01;6.53;;;2.50;;
45039;SDS011;30778;53.574;7.770;2023-07-16T12:27:29;4.32;;;1.58;;
45039;SDS011;30778;53.574;7.770;2023-07-16T12:29:55;4.03;;;1.92;;
45039;SDS011;30778;53.574;7.770;2023-07-16T12:32:23;5.07;;;1.98;;
45039;SDS011;30778;53.574;7.770;2023-07-16T12:34:50;5.28;;;2.40;;
45039;SDS011;30778;53.574;7.770;2023-07-16T12:37:23;4.40;;;1.80;;
45039;SDS011;30778;53.574;7.770;2023-07-16T12:39:48;5.90;;;2.15;;
45039;SDS011;30778;53.574;7.770;2023-07-16T12:42:14;5.10;;;1.65;;
45039;SDS011;30778;53.574;7.770;2023-07-16T12:44:44;3.63;;;2.58;;
45039;SDS011;30778;53.574;7.770;2023-07-16T12:47:17;5.82;;;2.03;;
45039;SDS011;30778;53.574;7.770;2023-07-16T12:49:42;3.33;;;2.10;;
45039;SDS011;30778;53.574;7.770;2023-07-16T12:52:08;3.65;;;1.90;;
45039;SDS011;30778;53.574;7.770;2023-07-16T12:54:36;7.75;;;2.10;;
45039;SDS011;30778;53.574;7.770;2023-07-16T12:57:01;4.10;;;1.88;;
45039;SDS011;30778;53.574;7.770;2023-07-16T12:59:27;4.40;;;1.52;;
45039;SDS011;30778;53.574;7.770;2023-07-16T13:01:55;3.97;;;2.00;;
45039;SDS011;30778;53.574;7.770;2023-07-16T13:04:23;5.45;;;2.22;;
45039;SDS011;30778;53.574;7.770;2023-07-16T13:06:50;2.80;;;1.42;;
45039;SDS011;30778;53.574;7.770;2023-07-16T13:09:18;3.47;;;1.33;;
45039;SDS011;30778;53.574;7.770;2023-07-16T13:11:44;4.55;;;1.50;;
45039;SDS011;30778;53.574;7.770;2023-07-16T13:14:09;5.25;;;1.30;;
45039;SDS011;30778;53.574;7.770;2023-07-16T13:16:45;5.20;;;1.75;;
45039;SDS011;30778;53.574;7.770;2023-07-16T13:19:16;4.93;;;2.28;;
45039;SDS011;30778;53.574;7.770;2023-07-16T13:21:44;5.18;;;1.67;;
45039;SDS011;30778;53.574;7.770;2023-07-16T13:24:09;6.18;;;1.38;;
45039;SDS011;30778;53.574;7.770;2023-07-16T13:26:37;6.65;;;2.17;;
45039;SDS011;30778;53.574;7.770;2023-07-16T13:29:02;5.47;;;2.15;;
45039;SDS011;30778;53.574;7.770;2023-07-16T13:31:30;4.68;;;1.52;;
45039;SDS011;30778;53.574;7.770;2023-07-16T13:33:56;4.95;;;2.03;;
45039;SDS011;30778;53.574;7.770;2023-07-16T13:36:21;4.25;;;1.77;;
45039;SDS011;30778;53.574;7.770;2023-07-16T13:38:47;3.28;;;2.20;;
45039;SDS011;30778;53.574;7.770;2023-07-16T13:41:14;8.57;;;1.73;;
45039;SDS011;30778;53.574;7.770;2023-07-16T13:43:45;4.35;;;2.15;;
45039;SDS011;30778;53.574;7.770;2023-07-16T13:46:13;3.55;;;1.67;;
45039;SDS011;30778;53.574;7.770;2023-07-16T13:48:38;6.25;;;2.33;;
45039;SDS011;30778;53.574;7.770;2023-07-16T13:51:04;5.00;;;1.77;;
45039;SDS011;30778;53.574;7.770;2023-07-16T13:53:31;3.55;;;1.60;;
45039;SDS011;30778;53.574;7.770;2023-07-16T13:56:04;3.65;;;1.60;;
45039;SDS011;30778;53.574;7.770;2023-07-16T13:58:29;4.45;;;1.65;;
45039;SDS011;30778;53.574;7.770;2023-07-16T14:00:58;4.57;;;1.50;;
45039;SDS011;30778;53.574;7.770;2023-07-16T14:03:23;10.60;;;2.38;;
45039;SDS011;30778;53.574;7.770;2023-07-16T14:05:49;9.38;;;1.75;;
45039;SDS011;30778;53.574;7.770;2023-07-16T14:08:14;7.78;;;1.85;;
45039;SDS011;30778;53.574;7.770;2023-07-16T14:10:40;3.30;;;1.77;;
45039;SDS011;30778;53.574;7.770;2023-07-16T14:13:05;4.45;;;1.95;;
45039;SDS011;30778;53.574;7.770;2023-07-16T14:15:31;3.22;;;2.10;;
45039;SDS011;30778;53.574;7.770;2023-07-16T14:17:57;5.40;;;1.90;;
45039;SDS011;30778;53.574;7.770;2023-07-16T14:20:25;6.40;;;2.92;;
45039;SDS011;30778;53.574;7.770;2023-07-16T14:22:50;7.90;;;2.28;;
45039;SDS011;30778;53.574;7.770;2023-07-16T14:25:16;4.85;;;1.95;;
45039;SDS011;30778;53.574;7.770;2023-07-16T14:27:41;3.95;;;2.03;;
45039;SDS011;30778;53.574;7.770;2023-07-16T14:30:07;6.63;;;2.08;;
45039;SDS011;30778;53.574;7.770;2023-07-16T14:32:34;7.97;;;2.30;;
45039;SDS011;30778;53.574;7.770;2023-07-16T14:35:02;5.18;;;1.60;;
45039;SDS011;30778;53.574;7.770;2023-07-16T14:37:28;5.65;;;1.77;;
45039;SDS011;30778;53.574;7.770;2023-07-16T14:39:54;6.30;;;2.35;;
45039;SDS011;30778;53.574;7.770;2023-07-16T14:42:22;4.75;;;2.30;;
45039;SDS011;30778;53.574;7.770;2023-07-16T14:44:47;8.05;;;1.92;;
45039;SDS011;30778;53.574;7.770;2023-07-16T14:47:13;4.32;;;2.35;;
45039;SDS011;30778;53.574;7.770;2023-07-16T14:49:38;6.40;;;2.55;;
45039;SDS011;30778;53.574;7.770;2023-07-16T14:52:04;4.30;;;2.28;;
45039;SDS011;30778;53.574;7.770;2023-07-16T14:54:29;5.78;;;2.80;;
45039;SDS011;30778;53.574;7.770;2023-07-16T14:56:56;6.22;;;1.92;;
45039;SDS011;30778;53.574;7.770;2023-07-16T14:59:21;4.55;;;2.20;;